Latest Weather Observations for Adele Island

IDW60801

Issued at 6:03 pm WST Friday 23 June 2017 (issued every 30 minutes, with the page automatically refreshed every 10 minutes)

About weather observations | Map of weather stations | Latest weather observations for WA | Other Formats
Station Details ID: 200735 Name: ADELE ISLAND Lat: -15.51 Lon: 123.16 Height: 4.6 m
Data from the previous 72 hours. | See also: Recent months at Adele Island
Date/Time
WST
Temp
°C
App
Temp
°C
Dew
Point
°C
Rel
Hum
%
Delta-T
°C
Wind Press
QNH
hPa
Press
MSL
hPa
Rain since
9am
mm
Dir  Spd
km/h
Gust
km/h
Spd
kts
Gust
kts
23/06:00pm - - - - - CALM 0 2 0 1 1012.3 1012.2 -
23/05:30pm - - - - - CALM 0 6 0 3 1012.0 1011.9 -
23/05:00pm - - - - - CALM 0 4 0 2 1011.5 1011.4 -
23/04:30pm - - - - - SE 4 7 2 4 1011.3 1011.2 -
23/04:00pm - - - - - SSE 7 11 4 6 1011.2 1011.1 -
23/03:30pm - - - - - N 9 17 5 9 1011.4 1011.3 -
23/03:00pm - - - - - N 7 11 4 6 1011.5 1011.4 -
23/02:30pm - - - - - WSW 11 15 6 8 1011.9 1011.8 -
23/02:00pm - - - - - SSW 13 17 7 9 1012.0 1011.9 -
23/01:30pm - - - - - SSW 13 17 7 9 1012.5 1012.4 -
23/01:00pm - - - - - SSE 11 17 6 9 1013.0 1012.9 -
23/12:30pm - - - - - SE 13 17 7 9 1013.6 1013.5 -
23/12:00pm - - - - - SE 13 17 7 9 1014.2 1014.1 -
23/11:30am - - - - - ESE 11 15 6 8 1014.7 1014.6 -
23/11:00am - - - - - SSE 11 17 6 9 1015.1 1015.0 -
23/10:30am - - - - - SSE 15 20 8 11 1015.6 1015.5 -
23/10:00am - - - - - SE 15 19 8 10 1015.8 1015.7 -
23/09:30am - - - - - SSE 17 22 9 12 1016.1 1016.0 -
23/09:00am - - - - - S 11 15 6 8 1016.1 1016.0 -
23/08:30am - - - - - S 11 20 6 11 1016.1 1016.0 -
23/08:00am - - - - - S 9 17 5 9 1015.9 1015.8 -
23/07:30am - - - - - S 9 11 5 6 1015.7 1015.6 -
23/07:00am - - - - - S 15 17 8 9 1015.3 1015.2 -
23/06:30am - - - - - S 11 13 6 7 1015.0 1014.9 -
23/06:00am - - - - - S 9 13 5 7 1014.7 1014.6 -
23/05:30am - - - - - S 7 9 4 5 1014.5 1014.4 -
23/05:00am - - - - - S 9 11 5 6 1014.3 1014.2 -
23/04:30am - - - - - CALM 0 4 0 2 1014.1 1014.0 -
23/04:00am - - - - - CALM 0 0 0 0 1014.1 1014.0 -
23/03:30am - - - - - CALM 0 4 0 2 1014.2 1014.1 -
23/03:00am - - - - - CALM 0 0 0 0 1014.4 1014.3 -
23/02:30am - - - - - CALM 0 2 0 1 1014.5 1014.4 -
23/02:00am - - - - - SSW 4 6 2 3 1014.4 1014.3 -
23/01:30am - - - - - SSW 6 7 3 4 1014.7 1014.6 -
23/01:00am - - - - - SW 7 9 4 5 1014.8 1014.7 -
23/12:30am - - - - - SW 7 9 4 5 1015.0 1014.9 -
23/12:00am - - - - - SW 9 11 5 6 1015.2 1015.1 -
 
Date/Time
WST
Temp
°C
App
Temp
°C
Dew
Point
°C
Rel
Hum
%
Delta-T
°C
Wind Press
QNH
hPa
Press
MSL
hPa
Rain since
9am
mm
Dir  Spd
km/h
Gust
km/h
Spd
kts
Gust
kts
22/11:30pm - - - - - WSW 9 11 5 6 1015.4 1015.3 -
22/11:00pm - - - - - WSW 9 11 5 6 1015.5 1015.4 -
22/10:30pm - - - - - SW 9 11 5 6 1015.6 1015.5 -
22/10:00pm - - - - - SW 9 9 5 5 1015.7 1015.6 -
22/09:30pm - - - - - SW 9 11 5 6 1016.0 1015.9 -
22/09:00pm - - - - - SW 9 9 5 5 1016.0 1015.9 -
22/08:30pm - - - - - WSW 9 9 5 5 1016.0 1015.9 -
22/08:00pm - - - - - SSW 6 9 3 5 1015.7 1015.6 -
22/07:30pm - - - - - CALM 0 6 0 3 1015.4 1015.3 -
22/07:00pm - - - - - S 7 7 4 4 1015.1 1015.0 -
22/06:30pm - - - - - S 7 7 4 4 1014.9 1014.8 -
22/06:00pm - - - - - SSE 4 7 2 4 1014.5 1014.4 -
22/05:30pm - - - - - ESE 6 7 3 4 1014.2 1014.1 -
22/05:00pm - - - - - ESE 6 7 3 4 1013.8 1013.7 -
22/04:30pm - - - - - E 7 9 4 5 1013.6 1013.5 -
22/04:00pm - - - - - ESE 7 13 4 7 1013.4 1013.3 -
22/03:30pm - - - - - NE 9 13 5 7 1013.4 1013.3 -
22/03:00pm - - - - - ENE 11 15 6 8 1013.4 1013.3 -
22/02:30pm - - - - - E 11 15 6 8 1013.5 1013.4 -
22/02:00pm - - - - - ESE 11 17 6 9 1013.7 1013.6 -
22/01:30pm - - - - - ESE 7 11 4 6 1014.1 1014.0 -
22/01:00pm - - - - - ESE 9 15 5 8 1014.3 1014.2 -
22/12:30pm - - - - - E 13 17 7 9 1014.6 1014.5 -
22/12:00pm - - - - - SE 9 11 5 6 1015.0 1014.9 -
22/11:30am - - - - - ESE 9 15 5 8 1015.4 1015.3 -
22/11:00am - - - - - SE 7 11 4 6 1015.9 1015.8 -
22/10:30am - - - - - ESE 15 17 8 9 1016.2 1016.1 -
22/10:00am - - - - - ESE 7 13 4 7 1016.3 1016.2 -
22/09:30am - - - - - ESE 7 13 4 7 1016.4 1016.3 -
22/09:00am - - - - - ESE 6 13 3 7 1016.4 1016.3 -
22/08:30am - - - - - SSE 7 13 4 7 1016.3 1016.2 -
22/08:00am - - - - - SSE 6 7 3 4 1016.1 1016.0 -
22/07:30am - - - - - SE 9 11 5 6 1015.8 1015.7 -
22/07:00am - - - - - SE 9 11 5 6 1015.7 1015.6 -
22/06:30am - - - - - SE 6 11 3 6 1015.6 1015.5 -
22/06:00am - - - - - SSE 9 11 5 6 1015.2 1015.1 -
22/05:30am - - - - - SSE 6 9 3 5 1014.9 1014.8 -
22/05:00am - - - - - SE 6 7 3 4 1014.8 1014.7 -
22/04:30am - - - - - SE 7 7 4 4 1014.6 1014.5 -
22/04:00am - - - - - SE 6 7 3 4 1014.6 1014.5 -
22/03:30am - - - - - SSE 7 11 4 6 1014.6 1014.5 -
22/03:00am - - - - - SSE 6 9 3 5 1014.7 1014.6 -
22/02:30am - - - - - SSE 6 7 3 4 1015.0 1014.9 -
22/02:00am - - - - - SSE 4 9 2 5 1015.1 1015.0 -
22/01:30am - - - - - S 9 9 5 5 1015.3 1015.2 -
22/01:00am - - - - - S 7 7 4 4 1015.5 1015.4 -
22/12:30am - - - - - S 7 9 4 5 1015.7 1015.6 -
22/12:00am - - - - - S 7 9 4 5 1015.7 1015.6 -
 
Date/Time
WST
Temp
°C
App
Temp
°C
Dew
Point
°C
Rel
Hum
%
Delta-T
°C
Wind Press
QNH
hPa
Press
MSL
hPa
Rain since
9am
mm
Dir  Spd
km/h
Gust
km/h
Spd
kts
Gust
kts
21/11:30pm - - - - - S 9 11 5 6 1015.7 1015.6 -
21/11:00pm - - - - - S 9 11 5 6 1015.9 1015.8 -
21/10:30pm - - - - - S 9 11 5 6 1016.1 1016.0 -
21/10:00pm - - - - - S 11 11 6 6 1016.0 1015.9 -
21/09:30pm - - - - - S 11 11 6 6 1015.7 1015.6 -
21/09:00pm - - - - - SSW 11 13 6 7 1015.6 1015.5 -
21/08:30pm - - - - - SSW 11 13 6 7 1015.4 1015.3 -
21/08:00pm - - - - - S 9 11 5 6 1015.3 1015.2 -
21/07:30pm - - - - - S 9 11 5 6 1015.1 1015.0 -
21/07:00pm - - - - - S 9 11 5 6 1014.9 1014.8 -
21/06:30pm - - - - - SSE 9 11 5 6 1014.6 1014.5 -
21/06:00pm - - - - - S 9 9 5 5 1014.2 1014.1 -
21/05:30pm - - - - - SSE 9 9 5 5 1014.0 1013.9 -
21/05:00pm - - - - - SSE 9 13 5 7 1013.7 1013.6 -
21/04:30pm - - - - - SSE 11 15 6 8 1013.4 1013.3 -
21/04:00pm - - - - - SE 13 15 7 8 1013.2 1013.1 -
21/03:30pm - - - - - SE 13 15 7 8 1013.1 1013.0 -
21/03:00pm - - - - - SE 15 17 8 9 1013.1 1013.0 -
21/02:30pm - - - - - SE 15 19 8 10 1013.0 1012.9 -
21/02:00pm - - - - - SE 15 20 8 11 1013.0 1012.9 -
21/01:30pm - - - - - SE 15 20 8 11 1013.2 1013.1 -
21/01:00pm - - - - - SE 13 20 7 11 1013.3 1013.2 -
21/12:30pm - - - - - SE 13 17 7 9 1013.4 1013.3 -
21/12:00pm - - - - - SE 17 20 9 11 1013.7 1013.6 -
21/11:30am - - - - - SE 17 20 9 11 1014.3 1014.2 -
21/11:00am - - - - - SE 15 20 8 11 1014.7 1014.6 -
21/10:30am - - - - - SE 15 19 8 10 1015.3 1015.2 -
21/10:00am - - - - - SE 11 13 6 7 1015.7 1015.6 -
21/09:30am - - - - - SE 9 13 5 7 1015.8 1015.7 -
21/09:00am - - - - - SSE 15 19 8 10 1015.9 1015.8 -
21/08:30am - - - - - SE 13 17 7 9 1016.0 1015.9 -
21/08:00am - - - - - SSE 9 11 5 6 1015.9 1015.8 -
21/07:30am - - - - - SSE 9 11 5 6 1015.5 1015.4 -
21/07:00am - - - - - SSE 11 13 6 7 1015.2 1015.1 -
21/06:30am - - - - - SSE 9 11 5 6 1014.8 1014.7 -
21/06:00am - - - - - SSE 9 11 5 6 1014.7 1014.6 -
21/05:30am - - - - - SSE 13 15 7 8 1014.6 1014.5 -
21/05:00am - - - - - SSE 13 15 7 8 1014.5 1014.4 -
21/04:30am - - - - - SSE 15 15 8 8 1014.4 1014.3 -
21/04:00am - - - - - SSE 13 13 7 7 1014.3 1014.2 -
21/03:30am - - - - - ENE 7 9 4 5 1014.1 1014.0 -
21/03:00am - - - - - NE 7 7 4 4 1013.9 1013.8 -
21/02:30am - - - - - ENE 7 9 4 5 1014.1 1014.0 -
21/02:00am - - - - - CALM 0 0 0 0 1014.4 1014.3 -
21/01:30am - - - - - CALM 0 0 0 0 1014.7 1014.6 -
21/01:00am - - - - - CALM 0 0 0 0 1014.9 1014.8 -
21/12:30am - - - - - CALM 0 2 0 1 1015.0 1014.9 -
21/12:00am - - - - - NE 6 7 3 4 1015.1 1015.0 -
 
Date/Time
WST
Temp
°C
App
Temp
°C
Dew
Point
°C
Rel
Hum
%
Delta-T
°C
Wind Press
QNH
hPa
Press
MSL
hPa
Rain since
9am
mm
Dir  Spd
km/h
Gust
km/h
Spd
kts
Gust
kts
20/11:30pm - - - - - NE 6 7 3 4 1015.1 1015.0 -
20/11:00pm - - - - - ENE 7 7 4 4 1015.1 1015.0 -
20/10:30pm - - - - - NE 7 9 4 5 1015.3 1015.2 -
20/10:00pm - - - - - ENE 7 9 4 5 1015.4 1015.3 -
20/09:30pm - - - - - NNE 6 9 3 5 1015.6 1015.5 -
20/09:00pm - - - - - CALM 0 0 0 0 1015.6 1015.5 -
20/08:30pm - - - - - CALM 0 0 0 0 1015.4 1015.3 -
20/08:00pm - - - - - CALM 0 0 0 0 1015.2 1015.1 -
20/07:30pm - - - - - CALM 0 0 0 0 1014.9 1014.8 -
20/07:00pm - - - - - CALM 0 0 0 0 1014.6 1014.5 -
20/06:30pm - - - - - NNE 2 6 1 3 1014.4 1014.3 -

Other Formats:

Comma delimited format used in spreadsheet applications
http://www.bom.gov.au/fwo/IDW60801/IDW60801.94210.axf

JavaScript Object Notation format (JSON) in row-major order
http://www.bom.gov.au/fwo/IDW60801/IDW60801.94210.json